createdAt,value
2024-03-15T00:00:52.087Z,11.54
2024-03-15T00:01:51.824Z,11.41
2024-03-15T00:02:51.806Z,11.43
2024-03-15T00:03:51.882Z,11.37
2024-03-15T00:04:51.796Z,11.34
2024-03-15T00:05:51.757Z,11.36
2024-03-15T00:06:51.790Z,11.37
2024-03-15T00:07:51.733Z,11.27
2024-03-15T00:08:51.756Z,11.33
2024-03-15T00:09:51.747Z,11.30
2024-03-15T00:10:51.744Z,11.31
2024-03-15T00:11:51.683Z,11.36
2024-03-15T00:12:51.784Z,11.27
2024-03-15T00:13:51.664Z,11.33
2024-03-15T00:14:51.662Z,11.33
2024-03-15T00:15:51.739Z,11.25
2024-03-15T00:16:51.634Z,11.22
2024-03-15T00:17:51.642Z,11.22
2024-03-15T00:18:51.657Z,11.30
2024-03-15T00:19:51.664Z,11.20
2024-03-15T00:20:51.589Z,11.28
2024-03-15T00:21:51.687Z,11.22
2024-03-15T00:22:51.571Z,11.23
2024-03-15T00:23:51.558Z,11.20
2024-03-15T00:24:51.728Z,11.22
2024-03-15T00:25:51.534Z,11.15
2024-03-15T00:26:51.599Z,11.19
2024-03-15T00:27:51.544Z,11.19
2024-03-15T00:28:51.509Z,11.27
2024-03-15T00:29:51.595Z,11.28
2024-03-15T00:30:51.661Z,11.22
2024-03-15T00:31:51.482Z,11.28
2024-03-15T00:32:51.507Z,11.25
2024-03-15T00:33:51.517Z,11.31
2024-03-15T00:34:51.456Z,11.33
2024-03-15T00:35:51.421Z,11.25
2024-03-15T00:36:51.437Z,11.28
2024-03-15T00:37:51.398Z,11.22
2024-03-15T00:38:51.495Z,11.25
2024-03-15T00:39:51.464Z,11.25
2024-03-15T00:40:51.375Z,11.27
2024-03-15T00:41:51.352Z,11.16
2024-03-15T00:42:51.391Z,11.18
2024-03-15T00:43:51.368Z,11.16
2024-03-15T00:44:51.379Z,11.16
2024-03-15T00:45:51.351Z,11.22
2024-03-15T00:46:51.349Z,11.25
2024-03-15T00:47:51.393Z,11.22
2024-03-15T00:48:51.458Z,11.31
2024-03-15T00:49:51.271Z,11.30
2024-03-15T00:50:51.334Z,11.31
2024-03-15T00:51:51.263Z,11.23
2024-03-15T00:52:51.247Z,11.25
2024-03-15T00:53:51.232Z,11.23
2024-03-15T00:54:51.250Z,11.23
2024-03-15T00:55:51.248Z,11.28
2024-03-15T00:56:51.244Z,11.22
2024-03-15T00:57:51.204Z,11.22
2024-03-15T00:58:51.170Z,11.22
2024-03-15T00:59:51.160Z,11.19
2024-03-15T01:00:51.253Z,11.19
2024-03-15T01:01:51.144Z,11.23
2024-03-15T01:02:51.184Z,11.13
2024-03-15T01:03:51.145Z,11.18
2024-03-15T01:04:51.115Z,11.16
2024-03-15T01:05:51.150Z,11.22
2024-03-15T01:06:51.140Z,11.19
2024-03-15T01:07:51.070Z,11.16
2024-03-15T01:08:51.067Z,11.16
2024-03-15T01:09:51.077Z,11.15
2024-03-15T01:10:51.069Z,11.19
2024-03-15T01:11:51.068Z,11.16
2024-03-15T01:12:51.063Z,11.22
2024-03-15T01:13:51.006Z,11.27
2024-03-15T01:14:51.006Z,11.18
2024-03-15T01:15:51.061Z,11.15
2024-03-15T01:16:50.981Z,11.19
2024-03-15T01:17:51.075Z,11.18
2024-03-15T01:18:51.026Z,11.15
2024-03-15T01:19:50.941Z,11.04
2024-03-15T01:20:50.934Z,11.04
2024-03-15T01:21:50.969Z,11.04
2024-03-15T01:22:50.936Z,11.11
2024-03-15T01:23:50.909Z,11.09
2024-03-15T01:24:50.975Z,11.01
2024-03-15T01:25:50.875Z,11.09
2024-03-15T01:26:50.924Z,11.11
2024-03-15T01:27:50.885Z,11.12
2024-03-15T01:28:50.855Z,11.13
2024-03-15T01:29:50.836Z,11.12
2024-03-15T01:30:50.890Z,11.03
2024-03-15T01:31:50.809Z,11.13
2024-03-15T01:32:50.861Z,11.19
2024-03-15T01:33:50.855Z,11.18
2024-03-15T01:34:50.806Z,11.20
2024-03-15T01:35:50.803Z,11.18
2024-03-15T01:36:50.823Z,11.19
2024-03-15T01:37:50.743Z,11.12
2024-03-15T01:38:50.821Z,11.18
2024-03-15T01:39:50.956Z,11.12
2024-03-15T01:40:50.722Z,11.20
2024-03-15T01:41:50.703Z,11.13
2024-03-15T01:42:50.783Z,11.15
2024-03-15T01:43:50.768Z,11.18
2024-03-15T01:44:50.671Z,11.18
2024-03-15T01:45:50.685Z,11.20
2024-03-15T01:46:50.682Z,11.18
2024-03-15T01:47:50.653Z,11.19
2024-03-15T01:48:50.670Z,11.15
2024-03-15T01:49:50.618Z,11.12
2024-03-15T01:50:50.611Z,11.13
2024-03-15T01:51:50.652Z,11.16
2024-03-15T01:52:50.619Z,11.16
2024-03-15T01:53:50.575Z,11.19
2024-03-15T01:54:50.694Z,11.23
2024-03-15T01:55:50.562Z,11.25
2024-03-15T01:56:50.554Z,11.25
2024-03-15T01:57:50.583Z,11.13
2024-03-15T01:58:50.530Z,11.23
2024-03-15T01:59:50.536Z,11.15
2024-03-15T02:00:50.683Z,11.22
2024-03-15T02:01:50.483Z,11.18
2024-03-15T02:02:50.477Z,11.25
2024-03-15T02:03:50.563Z,11.28
2024-03-15T02:04:50.454Z,11.20
2024-03-15T02:05:50.447Z,11.22
2024-03-15T02:06:50.495Z,11.19
2024-03-15T02:07:50.418Z,11.19
2024-03-15T02:08:50.419Z,11.20
2024-03-15T02:09:50.458Z,11.18
2024-03-15T02:10:50.431Z,11.23
2024-03-15T02:11:50.400Z,11.18
2024-03-15T02:12:50.785Z,11.18
2024-03-15T02:13:50.375Z,11.18
2024-03-15T02:14:50.372Z,11.18
2024-03-15T02:15:50.424Z,11.19
2024-03-15T02:16:50.325Z,11.09
2024-03-15T02:17:50.349Z,11.22
2024-03-15T02:18:50.419Z,11.09
2024-03-15T02:19:50.337Z,11.20
2024-03-15T02:20:50.283Z,11.05
2024-03-15T02:21:50.340Z,11.12
2024-03-15T02:22:50.259Z,11.08
2024-03-15T02:23:50.248Z,11.01
2024-03-15T02:24:50.362Z,11.11
2024-03-15T02:25:50.220Z,11.13
2024-03-15T02:26:50.230Z,11.12
2024-03-15T02:27:50.302Z,11.03
2024-03-15T02:28:50.189Z,11.04
2024-03-15T02:29:50.179Z,11.05
2024-03-15T02:30:50.282Z,11.04
2024-03-15T02:31:50.181Z,11.08
2024-03-15T02:32:50.159Z,11.09
2024-03-15T02:33:50.176Z,11.05
2024-03-15T02:34:50.128Z,11.05
2024-03-15T02:35:50.110Z,11.05
2024-03-15T02:36:50.224Z,11.05
2024-03-15T02:37:50.094Z,11.08
2024-03-15T02:38:50.084Z,10.98
2024-03-15T02:39:50.252Z,10.98
2024-03-15T02:40:50.058Z,10.97
2024-03-15T02:41:50.051Z,10.97
2024-03-15T02:42:50.202Z,11.08
2024-03-15T02:43:50.046Z,11.03
2024-03-15T02:44:50.041Z,11.00
2024-03-15T02:45:50.012Z,11.00
2024-03-15T02:46:49.995Z,11.03
2024-03-15T02:47:50.109Z,11.09
2024-03-15T02:48:50.015Z,11.03
2024-03-15T02:49:49.957Z,11.08
2024-03-15T02:50:49.948Z,11.04
2024-03-15T02:51:49.997Z,11.04
2024-03-15T02:52:50.274Z,10.97
2024-03-15T02:53:49.956Z,11.05
2024-03-15T02:54:49.934Z,11.05
2024-03-15T02:55:49.902Z,11.01
2024-03-15T02:56:49.883Z,11.01
2024-03-15T02:57:50.033Z,11.05
2024-03-15T02:58:49.948Z,10.91
2024-03-15T02:59:49.857Z,11.03
2024-03-15T03:00:50.000Z,11.05
2024-03-15T03:01:49.876Z,11.00
2024-03-15T03:02:49.821Z,11.08
2024-03-15T03:03:49.882Z,11.01
2024-03-15T03:04:49.792Z,10.98
2024-03-15T03:05:49.789Z,11.08
2024-03-15T03:06:49.851Z,11.05
2024-03-15T03:07:49.768Z,11.03
2024-03-15T03:08:49.782Z,11.05
2024-03-15T03:09:49.855Z,11.05
2024-03-15T03:10:49.750Z,11.08
2024-03-15T03:11:49.727Z,11.03
2024-03-15T03:12:49.866Z,10.98
2024-03-15T03:13:49.766Z,10.93
2024-03-15T03:14:49.734Z,10.93
2024-03-15T03:15:49.733Z,10.95
2024-03-15T03:16:49.667Z,10.93
2024-03-15T03:17:49.717Z,11.09
2024-03-15T03:18:49.764Z,10.91
2024-03-15T03:19:49.638Z,10.95
2024-03-15T03:20:49.623Z,11.01
2024-03-15T03:21:49.709Z,10.82
2024-03-15T03:22:49.642Z,10.87
2024-03-15T03:23:49.643Z,10.85
2024-03-15T03:24:49.655Z,10.87
2024-03-15T03:25:49.600Z,10.82
2024-03-15T03:26:49.557Z,10.90
2024-03-15T03:27:49.691Z,10.82
2024-03-15T03:28:49.542Z,10.94
2024-03-15T03:29:49.554Z,10.83
2024-03-15T03:30:49.599Z,10.91
2024-03-15T03:31:49.499Z,10.87
2024-03-15T03:32:49.573Z,10.86
2024-03-15T03:33:49.559Z,10.87
2024-03-15T03:34:49.496Z,10.90
2024-03-15T03:35:49.468Z,10.90
2024-03-15T03:36:49.568Z,10.91
2024-03-15T03:37:49.467Z,10.86
2024-03-15T03:38:49.458Z,10.83
2024-03-15T03:39:49.472Z,10.87
2024-03-15T03:40:49.397Z,10.82
2024-03-15T03:41:49.393Z,10.87
2024-03-15T03:42:49.518Z,10.86
2024-03-15T03:43:49.370Z,10.80
2024-03-15T03:44:49.356Z,10.80
2024-03-15T03:45:49.410Z,10.80
2024-03-15T03:46:49.346Z,10.83
2024-03-15T03:47:49.358Z,10.73
2024-03-15T03:48:49.354Z,10.75
2024-03-15T03:49:49.307Z,10.78
2024-03-15T03:50:49.297Z,10.82
2024-03-15T03:51:49.368Z,10.82
2024-03-15T03:52:49.373Z,10.83
2024-03-15T03:53:49.287Z,10.76
2024-03-15T03:54:49.368Z,10.79
2024-03-15T03:55:49.236Z,10.83
2024-03-15T03:56:49.232Z,10.79
2024-03-15T03:57:49.264Z,10.79
2024-03-15T03:58:49.223Z,10.78
2024-03-15T03:59:49.187Z,10.82
2024-03-15T04:00:49.298Z,10.79
2024-03-15T04:01:49.202Z,10.76
2024-03-15T04:02:49.236Z,10.82
2024-03-15T04:03:49.228Z,10.75
2024-03-15T04:04:49.138Z,10.82
2024-03-15T04:05:49.140Z,10.83
2024-03-15T04:06:49.204Z,10.79
2024-03-15T04:07:49.134Z,10.78
2024-03-15T04:08:49.090Z,10.83
2024-03-15T04:09:49.116Z,10.75
2024-03-15T04:10:50.426Z,10.87
2024-03-15T04:11:49.128Z,10.83
2024-03-15T04:12:49.131Z,10.86
2024-03-15T04:13:49.073Z,10.87
2024-03-15T04:14:55.635Z,10.94
2024-03-15T04:15:50.025Z,10.85
2024-03-15T04:16:49.001Z,10.78
2024-03-15T04:17:49.014Z,10.83
2024-03-15T04:18:49.053Z,10.79
2024-03-15T04:19:48.976Z,10.91
2024-03-15T04:20:48.960Z,10.87
2024-03-15T04:21:49.017Z,10.85
2024-03-15T04:22:48.948Z,10.87
2024-03-15T04:23:48.962Z,10.91
2024-03-15T04:24:48.936Z,10.80
2024-03-15T04:25:48.929Z,10.83
2024-03-15T04:26:48.901Z,10.79
2024-03-15T04:27:49.026Z,10.78
2024-03-15T04:28:48.912Z,10.80
2024-03-15T04:29:48.908Z,10.87
2024-03-15T04:30:48.974Z,10.79
2024-03-15T04:31:48.836Z,10.86
2024-03-15T04:32:48.902Z,10.83
2024-03-15T04:33:48.938Z,10.87
2024-03-15T04:34:48.819Z,10.72
2024-03-15T04:35:48.796Z,10.75
2024-03-15T04:36:48.823Z,10.73
2024-03-15T04:37:48.779Z,10.76
2024-03-15T04:38:48.914Z,10.78
2024-03-15T04:39:48.813Z,10.76
2024-03-15T04:40:48.746Z,10.70
2024-03-15T04:41:48.733Z,10.76
2024-03-15T04:42:48.836Z,10.67
2024-03-15T04:43:48.709Z,10.75
2024-03-15T04:44:48.719Z,10.65
2024-03-15T04:45:48.812Z,10.72
2024-03-15T04:46:48.696Z,10.62
2024-03-15T04:47:48.693Z,10.73
2024-03-15T04:48:48.694Z,10.62
2024-03-15T04:49:48.644Z,10.70
2024-03-15T04:50:48.684Z,10.68
2024-03-15T04:51:48.686Z,10.70
2024-03-15T04:52:48.632Z,10.76
2024-03-15T04:53:48.596Z,10.73
2024-03-15T04:54:48.629Z,10.75
2024-03-15T04:55:48.608Z,10.73
2024-03-15T04:56:48.559Z,10.76
2024-03-15T04:57:48.787Z,10.79
2024-03-15T04:58:48.531Z,10.75
2024-03-15T04:59:48.538Z,10.70
2024-03-15T05:00:48.577Z,10.79
2024-03-15T05:01:48.570Z,10.79
2024-03-15T05:02:48.496Z,10.75
2024-03-15T05:03:48.579Z,10.76
2024-03-15T05:04:48.472Z,10.76
2024-03-15T05:05:48.491Z,10.72
2024-03-15T05:06:48.578Z,10.76
2024-03-15T05:07:48.850Z,10.76
2024-03-15T05:08:51.735Z,10.79
2024-03-15T05:09:49.514Z,10.72
2024-03-15T05:10:48.643Z,10.82
2024-03-15T05:11:48.392Z,10.72
2024-03-15T05:12:48.450Z,10.72
2024-03-15T05:13:48.378Z,10.73
2024-03-15T05:14:48.370Z,10.67
2024-03-15T05:15:48.409Z,10.70
2024-03-15T05:16:48.341Z,10.72
2024-03-15T05:17:48.502Z,10.76
2024-03-15T05:18:48.422Z,10.78
2024-03-15T05:19:48.309Z,10.76
2024-03-15T05:20:48.351Z,10.79
2024-03-15T05:21:48.404Z,10.83
2024-03-15T05:22:48.392Z,10.72
2024-03-15T05:23:48.275Z,10.75
2024-03-15T05:24:48.341Z,10.73
2024-03-15T05:25:50.430Z,10.78
2024-03-15T05:26:48.256Z,10.76
2024-03-15T05:27:48.562Z,10.76
2024-03-15T05:28:48.203Z,10.73
2024-03-15T05:29:48.198Z,10.72
2024-03-15T05:30:48.214Z,10.70
2024-03-15T05:31:48.207Z,10.72
2024-03-15T05:32:48.240Z,10.79
2024-03-15T05:33:48.175Z,10.76
2024-03-15T05:34:48.132Z,10.79
2024-03-15T05:35:48.168Z,10.75
2024-03-15T05:36:48.194Z,10.76
2024-03-15T05:37:48.108Z,10.82
2024-03-15T05:38:48.182Z,10.72
2024-03-15T05:39:48.132Z,10.78
2024-03-15T05:40:48.098Z,10.82
2024-03-15T05:41:48.069Z,10.79
2024-03-15T05:42:48.128Z,10.75
2024-03-15T05:43:48.051Z,10.83
2024-03-15T05:44:48.050Z,10.73
2024-03-15T05:45:48.116Z,10.75
2024-03-15T05:46:48.025Z,10.79
2024-03-15T05:47:48.218Z,10.79
2024-03-15T05:48:48.073Z,10.85
2024-03-15T05:49:47.990Z,10.75
2024-03-15T05:50:48.002Z,10.91
2024-03-15T05:51:48.038Z,10.83
2024-03-15T05:52:47.973Z,10.82
2024-03-15T05:53:48.827Z,10.78
2024-03-15T05:54:47.986Z,10.91
2024-03-15T05:55:47.911Z,10.86
2024-03-15T05:56:47.900Z,10.91
2024-03-15T05:57:47.977Z,10.86
2024-03-15T05:58:47.884Z,10.86
2024-03-15T05:59:47.873Z,10.91
2024-03-15T06:00:47.960Z,10.83
2024-03-15T06:01:47.878Z,10.82
2024-03-15T06:02:47.872Z,10.94
2024-03-15T06:03:48.021Z,11.00
2024-03-15T06:04:47.810Z,11.01
2024-03-15T06:05:47.822Z,10.85
2024-03-15T06:06:48.130Z,10.82
2024-03-15T06:07:51.134Z,10.95
2024-03-15T06:08:48.766Z,10.98
2024-03-15T06:09:47.800Z,11.01
2024-03-15T06:10:47.772Z,11.03
2024-03-15T06:11:47.741Z,11.08
2024-03-15T06:12:47.793Z,10.98
2024-03-15T06:13:47.739Z,11.04
2024-03-15T06:14:47.711Z,11.05
2024-03-15T06:15:47.796Z,11.03
2024-03-15T06:16:47.686Z,11.03
2024-03-15T06:17:47.756Z,11.03
2024-03-15T06:18:47.828Z,11.09
2024-03-15T06:19:47.669Z,11.08
2024-03-15T06:20:49.995Z,11.08
2024-03-15T06:21:47.784Z,11.04
2024-03-15T06:22:47.626Z,11.22
2024-03-15T06:23:47.632Z,11.19
2024-03-15T06:24:47.773Z,11.13
2024-03-15T06:25:47.595Z,11.16
2024-03-15T06:26:47.636Z,11.18
2024-03-15T06:27:47.664Z,11.19
2024-03-15T06:28:47.554Z,11.16
2024-03-15T06:29:47.629Z,11.27
2024-03-15T06:30:47.652Z,11.19
2024-03-15T06:31:47.597Z,11.27
2024-03-15T06:32:47.537Z,11.28
2024-03-15T06:33:47.625Z,11.34
2024-03-15T06:34:47.526Z,11.45
2024-03-15T06:35:47.524Z,11.43
2024-03-15T06:36:47.523Z,11.48
2024-03-15T06:37:47.482Z,11.55
2024-03-15T06:38:49.117Z,11.56
2024-03-15T06:39:47.490Z,11.67
2024-03-15T06:40:47.459Z,11.64
2024-03-15T06:41:48.074Z,11.64
2024-03-15T06:42:47.458Z,11.80
2024-03-15T06:43:47.411Z,11.89
2024-03-15T06:44:50.141Z,11.76
2024-03-15T06:45:47.404Z,11.79
2024-03-15T06:46:47.367Z,11.88
2024-03-15T06:47:47.834Z,11.82
2024-03-15T06:48:47.398Z,11.89
2024-03-15T06:49:47.344Z,11.91
2024-03-15T06:50:47.355Z,11.89
2024-03-15T06:51:47.608Z,12.03
2024-03-15T06:52:47.336Z,11.89
2024-03-15T06:53:47.335Z,12.03
2024-03-15T06:54:47.355Z,11.99
2024-03-15T06:55:47.339Z,12.07
2024-03-15T06:56:47.254Z,11.96
2024-03-15T06:57:47.283Z,12.15
2024-03-15T06:58:47.253Z,12.10
2024-03-15T06:59:47.221Z,12.22
2024-03-15T07:00:47.258Z,12.28
2024-03-15T07:01:47.221Z,12.35
2024-03-15T07:02:47.244Z,12.30
2024-03-15T07:03:47.256Z,12.23
2024-03-15T07:04:47.162Z,12.26
2024-03-15T07:05:47.258Z,12.32
2024-03-15T07:06:47.186Z,12.38
2024-03-15T07:07:47.152Z,12.38
2024-03-15T07:08:49.565Z,12.41
2024-03-15T07:09:47.186Z,12.46
2024-03-15T07:10:47.165Z,12.48
2024-03-15T07:11:47.152Z,12.48
2024-03-15T07:12:47.130Z,12.51
2024-03-15T07:13:47.085Z,12.54
2024-03-15T07:14:49.728Z,12.59
2024-03-15T07:15:47.153Z,12.58
2024-03-15T07:16:47.039Z,12.55
2024-03-15T07:17:47.084Z,12.61
2024-03-15T07:18:47.237Z,12.72
2024-03-15T07:19:47.140Z,12.73
2024-03-15T07:20:47.081Z,12.80
2024-03-15T07:21:47.060Z,12.80
2024-03-15T07:22:47.028Z,12.79
2024-03-15T07:23:46.968Z,12.93
2024-03-15T07:24:46.996Z,12.95
2024-03-15T07:25:46.934Z,12.93
2024-03-15T07:26:46.938Z,12.95
2024-03-15T07:27:47.046Z,13.06
2024-03-15T07:28:46.906Z,13.06
2024-03-15T07:29:46.876Z,13.09
2024-03-15T07:30:46.927Z,13.06
2024-03-15T07:31:46.872Z,13.13
2024-03-15T07:32:46.955Z,13.19
2024-03-15T07:33:46.852Z,13.14
2024-03-15T07:34:46.819Z,13.17
2024-03-15T07:35:46.815Z,13.14
2024-03-15T07:36:46.879Z,13.21
2024-03-15T07:37:48.946Z,13.35
2024-03-15T07:38:46.788Z,13.42
2024-03-15T07:39:50.143Z,13.45
2024-03-15T07:40:48.283Z,13.43
2024-03-15T07:41:48.586Z,13.46
2024-03-15T07:42:50.406Z,13.58
2024-03-15T07:43:48.955Z,13.61
2024-03-15T07:44:47.385Z,13.53
2024-03-15T07:45:48.800Z,13.64
2024-03-15T07:46:46.823Z,13.68
2024-03-15T07:47:50.477Z,13.67
2024-03-15T07:48:46.793Z,13.82
2024-03-15T07:49:48.889Z,13.67
2024-03-15T07:50:46.640Z,13.78
2024-03-15T07:51:46.718Z,13.73
2024-03-15T07:52:46.650Z,13.76
2024-03-15T07:53:46.789Z,13.79
2024-03-15T07:54:46.614Z,13.82
2024-03-15T07:55:46.589Z,13.85
2024-03-15T07:56:49.003Z,13.94
2024-03-15T07:57:49.375Z,13.88
2024-03-15T07:58:46.591Z,13.88
2024-03-15T07:59:46.578Z,13.93
2024-03-15T08:00:48.641Z,13.91
2024-03-15T08:01:48.773Z,13.90
2024-03-15T08:02:46.542Z,13.93
2024-03-15T08:03:47.811Z,13.90
2024-03-15T08:04:46.597Z,13.97
2024-03-15T08:05:47.345Z,13.90
2024-03-15T08:06:48.192Z,13.88
2024-03-15T08:07:48.567Z,13.97
2024-03-15T08:08:46.486Z,13.93
2024-03-15T08:09:46.524Z,14.03
2024-03-15T08:10:46.455Z,14.04
2024-03-15T08:11:46.692Z,14.00
2024-03-15T08:12:46.510Z,14.04
2024-03-15T08:13:46.454Z,13.98
2024-03-15T08:14:48.162Z,14.05
2024-03-15T08:15:48.983Z,14.05
2024-03-15T08:16:48.358Z,14.12
2024-03-15T08:17:46.416Z,14.09
2024-03-15T08:18:46.420Z,14.13
2024-03-15T08:19:46.363Z,14.21
2024-03-15T08:20:46.359Z,14.19
2024-03-15T08:21:46.394Z,14.26
2024-03-15T08:22:46.401Z,14.31
2024-03-15T08:23:46.499Z,14.36
2024-03-15T08:24:46.431Z,14.52
2024-03-15T08:25:46.259Z,14.59
2024-03-15T08:26:46.251Z,14.55
2024-03-15T08:27:50.304Z,14.71
2024-03-15T08:28:47.571Z,14.74
2024-03-15T08:29:48.936Z,14.82
2024-03-15T08:30:46.259Z,14.92
2024-03-15T08:31:47.894Z,15.05
2024-03-15T08:32:46.313Z,15.12
2024-03-15T08:33:46.258Z,15.11
2024-03-15T08:34:47.853Z,15.05
2024-03-15T08:35:47.736Z,15.08
2024-03-15T08:36:46.476Z,15.17
2024-03-15T08:37:47.197Z,14.99
2024-03-15T08:38:46.122Z,15.03
2024-03-15T08:39:48.269Z,15.11
2024-03-15T08:40:46.498Z,15.11
2024-03-15T08:41:47.260Z,15.08
2024-03-15T08:42:47.703Z,15.15
2024-03-15T08:43:48.415Z,15.23
2024-03-15T08:44:46.060Z,15.29
2024-03-15T08:45:48.177Z,15.26
2024-03-15T08:46:46.142Z,15.29
2024-03-15T08:47:55.201Z,15.35
2024-03-15T08:48:47.121Z,15.38
2024-03-15T08:49:46.045Z,15.30
2024-03-15T08:50:46.009Z,15.33
2024-03-15T08:51:47.759Z,15.48
2024-03-15T08:52:47.811Z,15.44
2024-03-15T08:53:47.012Z,15.45
2024-03-15T08:54:48.991Z,15.47
2024-03-15T08:55:46.378Z,15.44
2024-03-15T08:56:45.983Z,15.44
2024-03-15T08:57:46.331Z,15.59
2024-03-15T08:58:49.246Z,15.56
2024-03-15T08:59:47.589Z,15.66
2024-03-15T09:00:49.271Z,15.70
2024-03-15T09:01:45.966Z,15.80
2024-03-15T09:02:45.912Z,15.81
2024-03-15T09:03:48.314Z,15.87
2024-03-15T09:04:45.831Z,16.00
2024-03-15T09:05:45.840Z,16.00
2024-03-15T09:06:45.938Z,15.91
2024-03-15T09:07:47.766Z,15.98
2024-03-15T09:08:48.119Z,16.10
2024-03-15T09:09:45.786Z,16.13
2024-03-15T09:10:45.838Z,16.09
2024-03-15T09:11:46.522Z,16.18
2024-03-15T09:12:45.932Z,16.24
2024-03-15T09:13:49.227Z,16.26
2024-03-15T09:14:45.814Z,16.18
2024-03-15T09:15:48.881Z,16.25
2024-03-15T09:16:45.702Z,16.29
2024-03-15T09:17:45.741Z,16.43
2024-03-15T09:18:45.714Z,16.52
2024-03-15T09:19:46.283Z,16.67
2024-03-15T09:20:46.003Z,16.74
2024-03-15T09:21:45.688Z,16.77
2024-03-15T09:22:45.659Z,16.80
2024-03-15T09:23:45.628Z,16.76
2024-03-15T09:24:45.685Z,16.87
2024-03-15T09:25:45.620Z,16.88
2024-03-15T09:26:46.276Z,16.88
2024-03-15T09:27:45.637Z,17.12
2024-03-15T09:28:46.155Z,17.10
2024-03-15T09:29:45.588Z,17.10
2024-03-15T09:30:54.129Z,17.20
2024-03-15T09:32:00.469Z,17.14
2024-03-15T09:32:46.606Z,17.12
2024-03-15T09:33:45.623Z,17.31
2024-03-15T09:34:45.572Z,17.37
2024-03-15T09:35:45.720Z,17.32
2024-03-15T09:36:45.547Z,17.35
2024-03-15T09:37:45.599Z,17.45
2024-03-15T09:38:46.022Z,17.46
2024-03-15T09:39:45.856Z,17.41
2024-03-15T09:40:45.430Z,17.53
2024-03-15T09:41:45.449Z,17.56
2024-03-15T09:42:46.657Z,17.49
2024-03-15T09:43:45.422Z,17.50
2024-03-15T09:44:45.393Z,17.53
2024-03-15T09:45:45.425Z,17.59
2024-03-15T09:46:45.368Z,17.62
2024-03-15T09:47:45.572Z,17.63
2024-03-15T09:48:45.380Z,17.87
2024-03-15T09:49:49.101Z,17.81
2024-03-15T09:50:45.328Z,17.91
2024-03-15T09:51:46.499Z,17.97
2024-03-15T09:52:48.289Z,18.02
2024-03-15T09:53:45.301Z,18.31
2024-03-15T09:54:46.878Z,18.46
2024-03-15T09:55:48.502Z,18.71
2024-03-15T09:56:47.787Z,18.89
2024-03-15T09:57:45.388Z,19.04
2024-03-15T09:58:46.972Z,19.04
2024-03-15T09:59:46.167Z,18.93
2024-03-15T10:00:46.822Z,19.22
2024-03-15T10:01:45.818Z,19.22
2024-03-15T10:02:47.734Z,19.41
2024-03-15T10:03:45.192Z,19.42
2024-03-15T10:04:45.171Z,19.54
2024-03-15T10:05:47.069Z,19.70
2024-03-15T10:06:45.229Z,19.67
2024-03-15T10:07:45.323Z,19.67
2024-03-15T10:08:45.236Z,19.63
2024-03-15T10:09:45.154Z,19.68
2024-03-15T10:10:45.129Z,19.82
2024-03-15T10:11:45.129Z,20.17
2024-03-15T10:12:48.047Z,20.23
2024-03-15T10:13:45.514Z,20.52
2024-03-15T10:14:45.067Z,20.70
2024-03-15T10:15:45.109Z,20.80
2024-03-15T10:16:45.055Z,20.97
2024-03-15T10:17:47.391Z,21.14
2024-03-15T10:18:46.769Z,21.28
2024-03-15T10:19:46.048Z,21.45
2024-03-15T10:20:46.254Z,21.56
2024-03-15T10:21:45.034Z,21.63
2024-03-15T10:22:44.986Z,21.71
2024-03-15T10:23:44.987Z,21.98
2024-03-15T10:24:45.002Z,22.00
2024-03-15T10:25:45.038Z,21.91
2024-03-15T10:26:45.075Z,21.80
2024-03-15T10:27:45.234Z,21.63
2024-03-15T10:28:44.930Z,21.60
2024-03-15T10:29:44.938Z,21.82
2024-03-15T10:30:44.926Z,21.78
2024-03-15T10:31:44.903Z,21.85
2024-03-15T10:32:44.884Z,21.94
2024-03-15T10:33:44.899Z,22.15
2024-03-15T10:34:44.922Z,22.27
2024-03-15T10:35:44.896Z,22.58
2024-03-15T10:36:44.884Z,22.83
2024-03-15T10:37:44.812Z,22.98
2024-03-15T10:38:44.859Z,22.93
2024-03-15T10:39:44.854Z,22.74
2024-03-15T10:40:44.795Z,22.30
2024-03-15T10:41:46.133Z,22.25
2024-03-15T10:42:44.889Z,22.37
2024-03-15T10:43:44.747Z,22.21
2024-03-15T10:44:44.762Z,21.98
2024-03-15T10:45:44.829Z,21.90
2024-03-15T10:46:44.807Z,21.88
2024-03-15T10:47:44.818Z,21.98
2024-03-15T10:48:44.878Z,21.94
2024-03-15T10:49:44.803Z,22.22
2024-03-15T10:50:44.682Z,21.71
2024-03-15T10:51:44.744Z,21.82
2024-03-15T10:52:44.749Z,21.55
2024-03-15T10:53:44.630Z,21.28
2024-03-15T10:54:44.663Z,21.29
2024-03-15T10:55:44.619Z,21.59
2024-03-15T10:56:44.635Z,21.44
2024-03-15T10:57:44.697Z,21.38
2024-03-15T10:58:44.601Z,21.41
2024-03-15T10:59:44.589Z,21.29
2024-03-15T11:00:44.766Z,21.58
2024-03-15T11:01:44.831Z,21.84
2024-03-15T11:02:44.651Z,21.94
2024-03-15T11:03:44.659Z,22.06
2024-03-15T11:04:44.518Z,22.18
2024-03-15T11:05:44.529Z,22.11
2024-03-15T11:06:44.543Z,21.97
2024-03-15T11:07:44.482Z,21.65
2024-03-15T11:08:44.493Z,21.91
2024-03-15T11:09:44.501Z,22.12
2024-03-15T11:10:44.595Z,21.96
2024-03-15T11:11:44.469Z,22.09
2024-03-15T11:12:44.527Z,22.11
2024-03-15T11:13:44.418Z,22.22
2024-03-15T11:14:44.437Z,22.12
2024-03-15T11:15:44.416Z,22.22
2024-03-15T11:16:44.398Z,22.28
2024-03-15T11:17:44.390Z,22.30
2024-03-15T11:18:44.432Z,22.46
2024-03-15T11:19:44.379Z,22.53
2024-03-15T11:20:44.345Z,22.67
2024-03-15T11:21:44.365Z,22.78
2024-03-15T11:22:44.319Z,22.88
2024-03-15T11:23:44.428Z,22.85
2024-03-15T11:24:44.330Z,22.59
2024-03-15T11:25:44.289Z,22.80
2024-03-15T11:26:44.278Z,22.71
2024-03-15T11:27:44.299Z,22.80
2024-03-15T11:28:44.285Z,22.70
2024-03-15T11:29:44.293Z,22.80
2024-03-15T11:30:44.363Z,23.07
2024-03-15T11:31:44.249Z,23.17
2024-03-15T11:32:44.335Z,23.36
2024-03-15T11:33:44.373Z,23.14
2024-03-15T11:34:44.346Z,23.18
2024-03-15T11:35:44.180Z,23.25
2024-03-15T11:36:44.411Z,23.28
2024-03-15T11:37:44.165Z,23.21
2024-03-15T11:38:44.172Z,23.23
2024-03-15T11:39:44.242Z,23.14
2024-03-15T11:40:44.127Z,22.99
2024-03-15T11:41:44.120Z,22.73
2024-03-15T11:42:44.262Z,22.43
2024-03-15T11:43:44.221Z,22.53
2024-03-15T11:44:44.087Z,22.31
2024-03-15T11:45:44.162Z,22.07
2024-03-15T11:46:44.067Z,22.11
2024-03-15T11:47:44.126Z,22.27
2024-03-15T11:48:44.140Z,22.33
2024-03-15T11:49:44.092Z,22.44
2024-03-15T11:50:44.039Z,22.59
2024-03-15T11:51:44.101Z,22.70
2024-03-15T11:52:44.062Z,22.85
2024-03-15T11:53:44.074Z,22.85
2024-03-15T11:54:46.381Z,22.74
2024-03-15T11:55:43.975Z,22.53
2024-03-15T11:56:46.738Z,22.73
2024-03-15T11:57:47.256Z,22.77
2024-03-15T11:58:43.943Z,22.53
2024-03-15T11:59:43.923Z,22.15
2024-03-15T12:00:43.964Z,22.03
2024-03-15T12:01:43.973Z,22.12
2024-03-15T12:02:44.011Z,21.96
2024-03-15T12:03:43.948Z,21.96
2024-03-15T12:04:43.880Z,21.98
2024-03-15T12:05:43.863Z,21.85
2024-03-15T12:06:43.902Z,21.98
2024-03-15T12:07:43.859Z,21.98
2024-03-15T12:08:43.832Z,21.94
2024-03-15T12:09:43.853Z,21.96
2024-03-15T12:10:43.890Z,21.98
2024-03-15T12:11:43.804Z,22.13
2024-03-15T12:12:43.833Z,22.07
2024-03-15T12:13:43.773Z,22.15
2024-03-15T12:14:43.799Z,22.21
2024-03-15T12:15:43.824Z,22.27
2024-03-15T12:16:43.732Z,22.12
2024-03-15T12:17:43.782Z,22.12
2024-03-15T12:18:43.799Z,22.25
2024-03-15T12:19:43.704Z,22.43
2024-03-15T12:20:43.730Z,22.64
2024-03-15T12:21:43.755Z,22.83
2024-03-15T12:22:43.699Z,22.78
2024-03-15T12:23:43.664Z,22.73
2024-03-15T12:24:43.695Z,22.59
2024-03-15T12:25:43.646Z,22.62
2024-03-15T12:26:43.629Z,22.58
2024-03-15T12:27:43.730Z,22.70
2024-03-15T12:28:43.606Z,22.73
2024-03-15T12:29:43.605Z,22.70
2024-03-15T12:30:43.721Z,22.67
2024-03-15T12:31:43.602Z,22.61
2024-03-15T12:32:43.651Z,22.55
2024-03-15T12:33:43.675Z,22.61
2024-03-15T12:34:43.556Z,22.80
2024-03-15T12:35:43.553Z,22.64
2024-03-15T12:36:43.578Z,22.61
2024-03-15T12:37:43.553Z,22.70
2024-03-15T12:38:43.518Z,22.71
2024-03-15T12:39:43.525Z,22.83
2024-03-15T12:40:43.500Z,22.64
2024-03-15T12:41:43.476Z,22.85
2024-03-15T12:42:43.526Z,22.61
2024-03-15T12:43:43.449Z,22.52
2024-03-15T12:44:43.441Z,22.52
2024-03-15T12:45:43.999Z,22.64
2024-03-15T12:46:43.412Z,22.86
2024-03-15T12:47:43.471Z,22.91
2024-03-15T12:48:43.440Z,23.04
2024-03-15T12:49:43.385Z,23.33
2024-03-15T12:50:43.398Z,23.23
2024-03-15T12:51:43.389Z,23.03
2024-03-15T12:52:43.372Z,23.07